Time;durP1;ratioP1;P1;durP2;ratioP2;P2;SDS_P1;SDS_P2;PMS_P1;PMS_P2;Temp;Humidity;BMP_temperature;BMP_pressure;BME280_temperature;BME280_humidity;BME280_pressure;Samples;Min_cycle;Max_cycle;Signal;HPM_P1;HPM_P2
2022/01/31 00:00:11;;;;;;;10.07;2.35;;;;;;;3.18;51.91;100305.66;4471730;31;20088;-73
2022/01/31 00:02:40;;;;;;;15.23;2.10;;;;;;;3.17;51.86;100312.59;4486278;31;20100;-73
2022/01/31 00:05:09;;;;;;;8.00;1.27;;;;;;;3.12;51.96;100309.91;4486476;31;20103;-73
2022/01/31 00:07:36;;;;;;;10.52;1.65;;;;;;;3.20;51.54;100316.97;4486552;31;20096;-73
2022/01/31 00:10:11;;;;;;;12.52;2.12;;;;;;;3.05;52.02;100318.47;4486419;31;20092;-73
2022/01/31 00:12:50;;;;;;;20.62;2.70;;;;;;;2.95;52.25;100310.47;4486184;31;20108;-73
2022/01/31 00:15:18;;;;;;;13.75;1.60;;;;;;;2.94;52.38;100317.41;4486270;31;20145;-73
2022/01/31 00:17:45;;;;;;;15.55;2.10;;;;;;;2.83;52.65;100319.81;4486235;31;20106;-73
2022/01/31 00:20:12;;;;;;;16.15;2.00;;;;;;;2.83;52.55;100314.63;4486263;31;20093;-73
2022/01/31 00:22:40;;;;;;;7.12;1.73;;;;;;;2.84;52.53;100316.38;4486066;31;20099;-73
2022/01/31 00:25:07;;;;;;;10.30;2.12;;;;;;;2.81;52.57;100311.09;4486149;31;20091;-73
2022/01/31 00:27:34;;;;;;;7.80;1.55;;;;;;;2.85;52.52;100325.03;4486119;31;20092;-73
2022/01/31 00:30:03;;;;;;;6.28;1.33;;;;;;;2.68;52.90;100327.31;4486204;31;20096;-73
2022/01/31 00:32:31;;;;;;;14.18;2.28;;;;;;;2.70;52.96;100322.16;4486179;31;20119;-73
2022/01/31 00:34:59;;;;;;;9.57;1.92;;;;;;;2.58;53.24;100315.00;4485485;31;20111;-73
2022/01/31 00:37:26;;;;;;;10.27;1.80;;;;;;;2.62;53.14;100325.50;4486044;31;20437;-73
2022/01/31 00:39:54;;;;;;;15.95;2.00;;;;;;;2.62;53.66;100325.50;4486073;31;20088;-73
2022/01/31 00:42:22;;;;;;;16.05;2.80;;;;;;;2.62;53.21;100328.09;4486061;31;20092;-73
2022/01/31 00:44:55;;;;;;;8.73;1.58;;;;;;;2.66;53.24;100333.38;4486166;31;20108;-73
2022/01/31 00:47:25;;;;;;;18.00;1.92;;;;;;;2.62;53.32;100327.22;4486130;31;20582;-73
2022/01/31 00:50:20;;;;;;;17.00;1.75;;;;;;;2.68;52.87;100327.31;4486067;31;20084;-73
2022/01/31 00:52:46;;;;;;;7.75;1.95;;;;;;;2.77;52.52;100331.84;4486163;31;20567;-73
2022/01/31 00:55:14;;;;;;;16.40;1.95;;;;;;;2.88;51.82;100331.19;4485961;31;20171;-73
2022/01/31 00:57:42;;;;;;;9.20;2.28;;;;;;;2.93;51.53;100323.44;4486019;31;20080;-73
2022/01/31 01:00:11;;;;;;;16.92;1.87;;;;;;;2.91;51.44;100330.38;4485961;31;20097;-73
2022/01/31 01:02:39;;;;;;;11.80;1.73;;;;;;;2.90;51.35;100333.84;4486012;31;20131;-73
2022/01/31 01:05:07;;;;;;;12.13;2.28;;;;;;;2.85;51.80;100325.03;4485840;31;20095;-73
2022/01/31 01:07:34;;;;;;;6.62;1.40;;;;;;;2.92;51.41;100334.72;4471580;31;20131;-73
2022/01/31 01:10:03;;;;;;;9.25;2.12;;;;;;;2.93;51.21;100328.66;4486069;31;20164;-73
2022/01/31 01:12:30;;;;;;;18.08;1.65;;;;;;;2.96;51.08;100335.66;4485798;31;20217;-73
2022/01/31 01:14:58;;;;;;;5.18;1.75;;;;;;;2.89;51.59;100326.84;4485896;31;20167;-73
2022/01/31 01:17:25;;;;;;;13.80;1.90;;;;;;;2.90;51.34;100332.94;4485789;31;20072;-73
2022/01/31 01:19:52;;;;;;;11.80;1.73;;;;;;;2.74;52.13;100319.66;4485789;31;20176;-73
2022/01/31 01:22:20;;;;;;;14.13;2.42;;;;;;;2.64;51.89;100325.53;4485722;31;20096;-73
2022/01/31 01:24:48;;;;;;;10.75;1.85;;;;;;;2.71;51.90;100322.19;4485707;31;20563;-73
2022/01/31 01:27:19;;;;;;;15.05;1.85;;;;;;;2.73;52.10;100307.50;4485956;31;20091;-73
2022/01/31 01:29:47;;;;;;;12.73;2.30;;;;;;;2.69;52.15;100302.22;4485676;31;20118;-73
2022/01/31 01:32:16;;;;;;;6.43;1.20;;;;;;;2.61;52.54;100315.97;4485796;31;20126;-73
2022/01/31 01:34:44;;;;;;;7.35;1.50;;;;;;;2.64;52.38;100304.72;4485564;31;20108;-73
2022/01/31 01:37:14;;;;;;;6.12;1.90;;;;;;;2.69;51.91;100292.69;4485728;31;20152;-73
2022/01/31 01:39:42;;;;;;;9.52;1.65;;;;;;;2.72;51.79;100284.94;4485670;31;20152;-73
2022/01/31 01:42:10;;;;;;;6.70;1.35;;;;;;;2.74;51.65;100285.81;4485889;31;20088;-73
2022/01/31 01:44:47;;;;;;;15.93;1.70;;;;;;;2.69;51.83;100271.88;4485684;31;20453;-73
2022/01/31 01:47:16;;;;;;;14.35;1.55;;;;;;;2.73;51.72;100260.66;4484999;31;20488;-73
2022/01/31 01:49:46;;;;;;;10.32;1.95;;;;;;;2.71;51.68;100267.56;4485523;31;20118;-73
2022/01/31 01:52:13;;;;;;;19.48;2.05;;;;;;;2.59;52.06;100264.75;4485799;31;20100;-73
2022/01/31 01:54:41;;;;;;;12.25;1.90;;;;;;;2.60;51.80;100262.16;4485723;31;20100;-73
2022/01/31 01:57:09;;;;;;;9.93;2.00;;;;;;;2.62;51.97;100264.81;4485559;31;20206;-73
2022/01/31 01:59:38;;;;;;;17.40;2.95;;;;;;;2.53;52.38;100255.09;4485682;31;20167;-73
2022/01/31 02:02:07;;;;;;;10.75;1.65;;;;;;;2.53;52.44;100249.00;4485554;31;20160;-73
2022/01/31 02:04:35;;;;;;;8.13;1.70;;;;;;;2.46;52.71;100252.34;4485653;31;20099;-73
2022/01/31 02:07:12;;;;;;;10.40;1.85;;;;;;;2.38;53.08;100257.41;4485635;31;20156;-73
2022/01/31 02:09:44;;;;;;;16.25;2.03;;;;;;;2.29;53.60;100262.41;4485224;31;20084;-73
2022/01/31 02:12:12;;;;;;;10.02;1.90;;;;;;;2.34;53.68;100263.41;4485676;31;20141;-73
2022/01/31 02:14:40;;;;;;;9.30;1.60;;;;;;;2.28;54.12;100263.28;4485736;31;20089;-73
2022/01/31 02:17:10;;;;;;;9.25;1.90;;;;;;;2.27;54.39;100267.59;4485464;31;20088;-73
2022/01/31 02:19:46;;;;;;;15.05;2.25;;;;;;;2.33;54.43;100272.94;4485571;31;20509;-73
2022/01/31 02:22:14;;;;;;;10.88;2.08;;;;;;;2.41;54.21;100264.41;4485304;31;20458;-73
2022/01/31 02:24:44;;;;;;;10.95;1.85;;;;;;;2.44;54.13;100262.75;4485474;31;20118;-73
2022/01/31 02:27:13;;;;;;;10.13;2.40;;;;;;;2.52;54.01;100252.47;4485354;31;20127;-73
2022/01/31 02:29:40;;;;;;;12.48;2.03;;;;;;;2.57;53.72;100253.41;4485436;31;20095;-73
2022/01/31 02:32:07;;;;;;;14.20;2.10;;;;;;;2.59;53.76;100254.34;4485077;31;20143;-73
2022/01/31 02:34:38;;;;;;;13.90;1.85;;;;;;;2.56;53.79;100259.47;4484876;31;20123;-73
2022/01/31 02:37:06;;;;;;;8.57;2.20;;;;;;;2.69;53.26;100238.06;4485185;31;20133;-73
2022/01/31 02:39:33;;;;;;;13.65;2.12;;;;;;;2.68;53.57;100240.59;4485015;31;20088;-73
2022/01/31 02:42:01;;;;;;;20.83;3.00;;;;;;;2.50;54.33;100241.16;4485060;31;20542;-73
2022/01/31 02:44:28;;;;;;;14.80;1.55;;;;;;;2.58;53.73;100222.25;4485140;31;20103;-73
2022/01/31 02:46:58;;;;;;;23.17;2.40;;;;;;;2.56;53.81;100223.06;4485063;31;20533;-73
2022/01/31 02:49:33;;;;;;;8.48;1.65;;;;;;;2.61;53.18;100204.09;4485057;31;20450;-73
2022/01/31 02:52:02;;;;;;;17.33;1.77;;;;;;;2.68;52.55;100207.66;4485113;31;20088;-73
2022/01/31 02:54:31;;;;;;;8.80;2.08;;;;;;;2.60;53.37;100189.31;4484919;31;20103;-73
2022/01/31 02:56:59;;;;;;;16.60;1.50;;;;;;;2.60;53.23;100188.44;4485258;31;20635;-73
2022/01/31 02:59:26;;;;;;;15.32;2.42;;;;;;;2.59;53.07;100186.72;4486991;31;20773;-73
2022/01/31 03:01:54;;;;;;;10.77;1.48;;;;;;;2.59;53.24;100195.38;4486730;31;20190;-70
2022/01/31 03:04:21;;;;;;;16.75;2.28;;;;;;;2.61;53.07;100182.38;4486907;31;20163;-71
2022/01/31 03:06:49;;;;;;;11.35;2.05;;;;;;;2.57;53.24;100181.47;4486881;31;20093;-71
2022/01/31 03:09:19;;;;;;;16.77;1.85;;;;;;;2.57;53.05;100183.19;4486654;31;20092;-71
2022/01/31 03:11:48;;;;;;;10.38;1.98;;;;;;;2.62;52.93;100194.56;4486913;31;20104;-71
2022/01/31 03:14:16;;;;;;;18.00;2.17;;;;;;;2.54;53.25;100191.81;4486817;31;20539;-71
2022/01/31 03:16:48;;;;;;;10.98;1.65;;;;;;;2.51;53.47;100178.78;4486679;31;20092;-71
2022/01/31 03:19:18;;;;;;;11.65;2.37;;;;;;;2.46;53.60;100174.34;4486887;31;20096;-71
2022/01/31 03:21:46;;;;;;;17.33;2.92;;;;;;;2.42;53.66;100178.59;4486902;31;20088;-71
2022/01/31 03:24:13;;;;;;;15.13;1.80;;;;;;;2.39;53.90;100175.94;4486689;31;20126;-71
2022/01/31 03:26:41;;;;;;;15.23;1.98;;;;;;;2.50;53.57;100173.53;4486526;31;20151;-71
2022/01/31 03:29:08;;;;;;;8.05;1.52;;;;;;;2.52;53.43;100161.44;4486739;31;20372;-71
2022/01/31 03:31:36;;;;;;;8.27;1.55;;;;;;;2.51;53.34;100157.97;4486521;31;20179;-71
2022/01/31 03:34:04;;;;;;;9.65;1.67;;;;;;;2.61;53.07;100157.28;4486627;31;20162;-71
2022/01/31 03:36:31;;;;;;;13.70;2.33;;;;;;;2.67;52.64;100164.28;4486728;31;20462;-71
2022/01/31 03:38:59;;;;;;;12.23;2.20;;;;;;;2.70;52.59;100153.94;4486669;31;20127;-71
2022/01/31 03:41:26;;;;;;;11.30;2.42;;;;;;;2.73;52.34;100161.81;4486473;31;20100;-71
2022/01/31 03:43:54;;;;;;;12.18;1.83;;;;;;;2.72;52.44;100147.06;4486314;31;20178;-71
2022/01/31 03:46:22;;;;;;;9.98;1.90;;;;;;;2.71;52.54;100139.19;4486805;31;20103;-71
2022/01/31 03:48:50;;;;;;;21.62;2.08;;;;;;;2.61;52.71;100145.97;4486436;31;20175;-71
2022/01/31 03:51:22;;;;;;;13.57;1.65;;;;;;;2.64;52.48;100153.84;4486558;31;20119;-71
2022/01/31 03:53:50;;;;;;;10.10;2.05;;;;;;;2.70;52.24;100153.94;4486570;31;20194;-71
2022/01/31 03:56:17;;;;;;;14.57;2.05;;;;;;;2.73;51.91;100161.81;4486653;31;20113;-71
2022/01/31 03:58:46;;;;;;;17.02;1.95;;;;;;;2.64;52.16;100151.22;4486544;31;20481;-71
2022/01/31 04:01:13;;;;;;;8.07;1.98;;;;;;;2.60;52.14;100136.44;4486527;31;20096;-71
2022/01/31 04:03:40;;;;;;;11.73;2.37;;;;;;;2.68;51.72;100142.63;4486205;31;20456;-71
2022/01/31 04:06:07;;;;;;;8.05;1.27;;;;;;;2.70;51.41;100135.72;4486363;31;20085;-71
2022/01/31 04:08:34;;;;;;;10.93;2.70;;;;;;;2.70;51.73;100137.47;4485529;31;20126;-71
2022/01/31 04:11:01;;;;;;;15.75;2.47;;;;;;;2.63;51.75;100128.69;4486147;31;20118;-71
2022/01/31 04:13:28;;;;;;;13.57;1.58;;;;;;;2.70;51.11;100119.25;4486192;31;20163;-71
2022/01/31 04:15:55;;;;;;;17.55;2.75;;;;;;;2.74;50.79;100114.13;4486365;31;20145;-71
2022/01/31 04:18:22;;;;;;;24.23;3.35;;;;;;;2.77;50.49;100108.09;4486357;31;20155;-71
2022/01/31 04:20:50;;;;;;;11.68;2.28;;;;;;;2.78;50.03;100096.81;4486214;31;20129;-71
2022/01/31 04:23:20;;;;;;;9.95;1.90;;;;;;;2.82;49.60;100101.22;4486229;31;20106;-71
2022/01/31 04:28:25;;;;;;;10.38;2.05;;;;;;;2.78;50.03;100104.63;4486191;31;20152;-71
2022/01/31 04:31:00;;;;;;;7.12;1.67;;;;;;;2.66;50.63;100110.53;4486152;31;20118;-71
2022/01/31 04:33:28;;;;;;;12.37;1.52;;;;;;;2.60;50.93;100110.41;4486922;31;20134;-71
2022/01/31 04:35:55;;;;;;;14.30;1.95;;;;;;;2.66;50.72;100120.94;4485851;31;20114;-71
2022/01/31 04:38:23;;;;;;;14.87;2.15;;;;;;;2.59;51.13;100116.47;4485970;31;20167;-71
2022/01/31 04:40:50;;;;;;;14.10;2.40;;;;;;;2.52;51.50;100109.44;4486055;31;20104;-71
2022/01/31 04:43:17;;;;;;;12.95;2.12;;;;;;;2.62;51.00;100098.31;4485844;31;20515;-71
2022/01/31 04:45:48;;;;;;;14.48;2.05;;;;;;;2.58;51.37;100086.09;4472035;31;20121;-71
2022/01/31 04:48:16;;;;;;;14.87;2.30;;;;;;;2.45;51.52;100077.25;4486988;31;20455;-71
2022/01/31 04:50:44;;;;;;;11.23;1.40;;;;;;;2.47;51.14;100082.47;4486816;31;20096;-71
2022/01/31 04:53:13;;;;;;;31.65;2.60;;;;;;;2.42;51.61;100082.41;4486331;31;20103;-71
2022/01/31 04:55:40;;;;;;;20.10;2.58;;;;;;;2.34;51.81;100087.47;4486712;31;20180;-71
2022/01/31 04:58:08;;;;;;;19.23;2.00;;;;;;;2.36;52.17;100105.69;4486491;31;20088;-71
2022/01/31 05:00:35;;;;;;;20.12;3.03;;;;;;;2.20;52.58;100101.97;4485898;31;20108;-71
2022/01/31 05:03:08;;;;;;;17.12;2.08;;;;;;;2.10;53.18;100108.72;4483990;31;20159;-71
2022/01/31 05:05:36;;;;;;;11.57;2.00;;;;;;;2.08;53.21;100100.00;4485009;31;20080;-71
2022/01/31 05:08:03;;;;;;;12.95;2.10;;;;;;;2.07;53.33;100103.47;4486769;31;20096;-71
2022/01/31 05:10:32;;;;;;;8.60;2.30;;;;;;;2.05;53.69;100115.56;4485477;31;20175;-71
2022/01/31 05:13:00;;;;;;;11.75;2.90;;;;;;;1.98;53.82;100112.81;4485591;31;20464;-71
2022/01/31 05:15:27;;;;;;;13.93;1.98;;;;;;;2.00;53.74;100117.19;4485724;31;20673;-71
2022/01/31 05:17:55;;;;;;;18.40;3.00;;;;;;;1.97;53.87;100096.34;4491417;31;20143;-70
2022/01/31 05:20:21;;;;;;;14.98;2.35;;;;;;;1.90;54.13;100090.16;4501248;31;20164;-70
2022/01/31 05:22:48;;;;;;;21.23;7.12;;;;;;;1.84;54.58;100071.88;4501619;31;20099;-71
2022/01/31 05:25:16;;;;;;;15.18;5.60;;;;;;;1.87;54.46;100058.06;4501604;31;20154;-70
2022/01/31 05:27:43;;;;;;;17.00;3.78;;;;;;;1.94;54.28;100039.12;4501476;31;20167;-71
2022/01/31 05:30:10;;;;;;;12.82;2.67;;;;;;;1.98;54.21;100033.16;4501457;31;20087;-70
2022/01/31 05:32:37;;;;;;;17.00;2.25;;;;;;;1.96;54.18;100027.06;4501860;31;20103;-70
2022/01/31 05:35:05;;;;;;;10.20;2.12;;;;;;;2.02;54.02;100029.75;4501258;31;20490;-71
2022/01/31 05:37:33;;;;;;;10.05;2.42;;;;;;;1.94;54.29;100020.94;4500316;31;20091;-71
2022/01/31 05:40:00;;;;;;;7.45;2.22;;;;;;;1.94;54.61;100022.66;4501114;31;20167;-71
2022/01/31 05:42:30;;;;;;;16.20;2.00;;;;;;;1.95;54.37;100030.50;4501352;31;20099;-71
2022/01/31 05:44:57;;;;;;;7.35;1.80;;;;;;;2.02;54.36;100027.16;4501374;31;20092;-71
2022/01/31 05:47:24;;;;;;;8.07;1.80;;;;;;;1.95;54.61;100024.44;4501301;31;20445;-71
2022/01/31 05:49:51;;;;;;;16.67;2.45;;;;;;;1.87;54.99;100019.09;4501368;31;20176;-71
2022/01/31 05:52:18;;;;;;;20.85;3.08;;;;;;;1.90;54.93;100017.41;4486524;31;20168;-71
2022/01/31 05:54:46;;;;;;;19.33;2.65;;;;;;;2.04;54.96;100014.19;4501340;31;20152;-71
2022/01/31 05:57:13;;;;;;;13.38;2.25;;;;;;;1.89;55.28;100014.81;4501111;31;20159;-71
2022/01/31 05:59:41;;;;;;;11.60;2.42;;;;;;;1.86;55.58;100031.22;4501409;31;20095;-71
2022/01/31 06:02:08;;;;;;;34.72;3.67;;;;;;;1.82;55.60;100031.13;4501191;31;20092;-71
2022/01/31 06:04:36;;;;;;;16.85;2.25;;;;;;;1.84;55.59;100027.72;4500939;31;20125;-71
2022/01/31 06:07:04;;;;;;;17.15;2.42;;;;;;;1.87;55.63;100016.50;4501043;31;20150;-71
2022/01/31 06:09:32;;;;;;;14.07;2.75;;;;;;;1.87;55.45;100017.38;4501605;31;20490;-71
2022/01/31 06:12:02;;;;;;;20.40;3.12;;;;;;;1.98;55.61;100019.28;4501012;31;20091;-71
2022/01/31 06:14:32;;;;;;;20.67;2.62;;;;;;;1.92;55.69;100030.44;4501302;31;20075;-71
2022/01/31 06:17:00;;;;;;;5.45;1.98;;;;;;;1.98;55.52;100034.84;4500851;31;20517;-71
2022/01/31 06:19:27;;;;;;;19.40;2.92;;;;;;;1.86;55.89;100032.94;4500789;31;20493;-71
2022/01/31 06:21:54;;;;;;;16.50;3.00;;;;;;;1.92;56.04;100035.66;4500853;31;20177;-71
2022/01/31 06:24:22;;;;;;;29.30;4.12;;;;;;;1.89;56.29;100035.59;4501129;31;20088;-71
2022/01/31 06:26:49;;;;;;;16.37;2.95;;;;;;;1.90;56.14;100051.19;4500955;31;20117;-71
2022/01/31 06:29:19;;;;;;;12.37;2.42;;;;;;;1.89;56.07;100039.06;4501053;31;20542;-71
2022/01/31 06:31:46;;;;;;;15.88;2.80;;;;;;;1.89;56.01;100036.47;4500051;31;20532;-71
2022/01/31 06:34:14;;;;;;;13.60;3.22;;;;;;;1.83;56.16;100033.75;4500386;31;20084;-71
2022/01/31 06:36:41;;;;;;;30.05;3.55;;;;;;;1.92;56.34;100031.31;4500807;31;20091;-71
2022/01/31 06:39:08;;;;;;;9.32;2.28;;;;;;;1.94;56.01;100023.53;4499842;31;20150;-71
2022/01/31 06:41:35;;;;;;;19.20;3.35;;;;;;;1.95;56.06;100014.91;4500321;31;20121;-71
2022/01/31 06:44:03;;;;;;;36.88;3.40;;;;;;;2.05;56.18;100015.91;4500567;31;20084;-71
2022/01/31 06:46:30;;;;;;;24.77;2.75;;;;;;;2.07;56.05;100014.25;4500697;31;20084;-71
2022/01/31 06:48:57;;;;;;;24.85;2.60;;;;;;;2.11;55.70;100010.84;4500252;31;20525;-71
2022/01/31 06:51:24;;;;;;;17.02;3.33;;;;;;;2.15;55.92;100010.03;4500376;31;20518;-71
2022/01/31 06:53:55;;;;;;;15.30;2.97;;;;;;;2.14;55.96;100003.09;4501018;31;20652;-71
2022/01/31 06:56:29;;;;;;;14.48;3.65;;;;;;;2.32;55.69;99995.56;4501372;31;20079;-71
2022/01/31 06:59:01;;;;;;;20.27;2.60;;;;;;;2.36;55.49;99994.75;4500816;31;20436;-71
2022/01/31 07:01:28;;;;;;;18.75;3.40;;;;;;;2.46;55.05;99980.19;4500045;31;20147;-71
2022/01/31 07:03:57;;;;;;;11.43;2.95;;;;;;;2.47;55.45;99976.72;4500204;31;20088;-71
2022/01/31 07:06:25;;;;;;;18.20;3.35;;;;;;;2.60;55.19;99980.38;4500215;31;20141;-71
2022/01/31 07:08:53;;;;;;;13.77;2.80;;;;;;;2.56;55.34;99979.47;4499373;31;20126;-71
2022/01/31 07:11:26;;;;;;;16.95;3.55;;;;;;;2.48;55.79;99970.69;4499245;31;20508;-71
2022/01/31 07:14:02;;;;;;;28.70;5.60;;;;;;;2.45;55.92;99970.63;4499714;31;20452;-71
2022/01/31 07:16:29;;;;;;;37.95;6.53;;;;;;;2.52;55.89;99972.47;4499756;31;20084;-71
2022/01/31 07:19:03;;;;;;;34.92;8.05;;;;;;;2.64;55.79;99974.34;4499350;31;20524;-71
2022/01/31 07:21:37;;;;;;;33.85;8.68;;;;;;;2.61;55.92;99962.22;4499933;31;20092;-71
2022/01/31 07:24:19;;;;;;;23.98;5.57;;;;;;;2.66;56.06;99967.47;4498595;31;20383;-71
2022/01/31 07:26:48;;;;;;;30.58;4.32;;;;;;;2.68;56.09;99959.66;4497817;31;20530;-71
2022/01/31 07:29:19;;;;;;;19.85;4.22;;;;;;;2.67;56.59;99961.41;4497688;31;20123;-71
2022/01/31 07:31:48;;;;;;;21.20;4.95;;;;;;;2.76;56.46;99955.44;4499245;31;20083;-71
2022/01/31 07:34:20;;;;;;;13.82;3.70;;;;;;;2.77;56.51;99960.66;4499108;31;20125;-71
2022/01/31 07:36:48;;;;;;;23.15;4.80;;;;;;;2.82;56.47;99950.31;4499177;31;20453;-71
2022/01/31 07:39:16;;;;;;;26.00;4.70;;;;;;;2.99;56.37;99945.31;4499411;31;20130;-71
2022/01/31 07:41:45;;;;;;;29.45;5.25;;;;;;;2.93;56.26;99929.62;4498122;31;20100;-71
2022/01/31 07:44:12;;;;;;;21.50;4.78;;;;;;;3.11;55.96;99937.66;4499273;31;20152;-71
2022/01/31 07:46:40;;;;;;;17.70;4.55;;;;;;;3.05;55.86;99940.19;4501412;31;20092;-71
2022/01/31 07:49:08;;;;;;;22.48;3.72;;;;;;;3.18;55.60;99934.25;4501580;31;20096;-71
2022/01/31 07:51:39;;;;;;;23.87;4.43;;;;;;;3.13;55.64;99930.72;4501587;31;20389;-71
2022/01/31 07:54:07;;;;;;;29.27;3.53;;;;;;;3.12;55.78;99924.66;4500572;31;20099;-71
2022/01/31 07:56:34;;;;;;;21.98;3.08;;;;;;;3.04;56.15;99934.09;4500516;31;20099;-71
2022/01/31 07:59:02;;;;;;;22.10;2.85;;;;;;;3.02;56.62;99937.53;4501620;31;20095;-71
2022/01/31 08:01:29;;;;;;;18.42;3.20;;;;;;;3.08;56.49;99938.47;4500721;31;20160;-73
2022/01/31 08:03:57;;;;;;;16.60;2.40;;;;;;;3.02;56.79;99937.53;4500447;31;20118;-74
2022/01/31 08:06:24;;;;;;;11.68;2.92;;;;;;;2.97;57.94;99926.19;4502149;31;20152;-72
2022/01/31 08:08:51;;;;;;;21.60;3.47;;;;;;;2.91;57.93;99911.41;4501571;31;20126;-71
2022/01/31 08:11:19;;;;;;;13.00;2.37;;;;;;;2.95;58.02;99920.09;4501668;31;20087;-71
2022/01/31 08:13:54;;;;;;;28.38;3.67;;;;;;;2.85;58.40;99908.72;4502090;31;20464;-71
2022/01/31 08:16:21;;;;;;;13.00;3.20;;;;;;;2.82;59.00;99917.34;4501876;31;20113;-71
2022/01/31 08:18:48;;;;;;;18.95;2.87;;;;;;;2.98;58.53;99914.94;4502059;31;20130;-71
2022/01/31 08:21:16;;;;;;;17.55;2.90;;;;;;;2.98;58.50;99892.38;4501949;31;20543;-71
2022/01/31 08:23:43;;;;;;;17.83;3.00;;;;;;;3.12;58.61;99888.19;4501813;31;20404;-71
2022/01/31 08:26:14;;;;;;;18.90;3.80;;;;;;;3.11;58.25;99899.47;4500915;31;20122;-71
2022/01/31 08:28:56;;;;;;;16.92;3.60;;;;;;;3.29;58.14;99890.97;4496519;31;20107;-71
2022/01/31 08:31:35;;;;;;;15.35;3.72;;;;;;;3.11;58.47;99894.28;4501997;31;20091;-71
2022/01/31 08:36:58;;;;;;;16.10;2.67;;;;;;;3.33;57.97;99884.06;4457208;31;20092;-71
2022/01/31 08:39:25;;;;;;;9.25;2.83;;;;;;;3.37;58.05;99893.66;4488497;31;20104;-71
2022/01/31 08:41:53;;;;;;;16.20;3.08;;;;;;;3.38;57.97;99902.31;4494172;31;20100;-71
2022/01/31 08:44:20;;;;;;;15.60;3.53;;;;;;;3.55;57.76;99898.16;4492816;31;20187;-72
2022/01/31 08:46:48;;;;;;;13.32;3.95;;;;;;;3.47;58.12;99892.00;4490333;31;20484;-71
2022/01/31 08:49:16;;;;;;;17.70;3.65;;;;;;;3.70;57.59;99887.84;4493270;31;20159;-73
2022/01/31 08:51:45;;;;;;;12.32;2.33;;;;;;;3.67;57.66;99885.22;4493978;31;20138;-73
2022/01/31 08:54:13;;;;;;;11.18;2.80;;;;;;;3.73;57.36;99881.78;4487748;31;20155;-73
2022/01/31 08:56:44;;;;;;;11.95;3.15;;;;;;;3.62;57.70;99884.31;4492480;31;20104;-72
2022/01/31 08:59:18;;;;;;;15.18;3.35;;;;;;;3.65;57.55;99879.13;4492317;31;20092;-72
2022/01/31 09:01:54;;;;;;;13.18;2.67;;;;;;;3.60;57.68;99878.19;4494098;31;20157;-73
2022/01/31 09:04:34;;;;;;;9.48;2.90;;;;;;;3.54;57.51;99866.03;4491577;31;20463;-72
2022/01/31 09:07:02;;;;;;;26.23;3.60;;;;;;;3.55;58.38;99862.53;4492322;31;20503;-73
2022/01/31 09:09:30;;;;;;;19.17;4.20;;;;;;;3.75;58.11;99874.88;4491509;31;20115;-72
2022/01/31 09:12:05;;;;;;;13.35;3.28;;;;;;;3.80;58.36;99873.16;4491773;31;20516;-71
2022/01/31 09:14:33;;;;;;;16.90;3.03;;;;;;;3.95;57.65;99862.81;4492419;31;20141;-71
2022/01/31 09:17:01;;;;;;;21.17;4.30;;;;;;;4.02;57.25;99874.16;4492216;31;20486;-71
2022/01/31 09:19:29;;;;;;;11.05;3.05;;;;;;;4.29;57.12;99863.03;4491260;31;20205;-71
2022/01/31 09:21:56;;;;;;;10.02;3.22;;;;;;;4.04;57.04;99854.22;4476834;31;20499;-71
2022/01/31 09:24:23;;;;;;;14.68;3.70;;;;;;;4.27;56.77;99856.94;4495322;31;20099;-71
2022/01/31 09:26:50;;;;;;;12.73;3.67;;;;;;;4.22;56.50;99856.91;4492247;31;20164;-71
2022/01/31 09:29:22;;;;;;;23.05;3.85;;;;;;;4.41;55.89;99849.16;4489493;31;20486;-72
2022/01/31 09:31:50;;;;;;;12.90;3.75;;;;;;;4.54;55.94;99840.53;4485043;31;20103;-71
2022/01/31 09:34:19;;;;;;;17.77;3.20;;;;;;;4.58;55.96;99837.06;4484815;31;20483;-71
2022/01/31 09:36:46;;;;;;;15.18;3.55;;;;;;;4.55;55.54;99831.84;4485114;31;20084;-71
2022/01/31 09:39:13;;;;;;;7.32;3.25;;;;;;;4.70;54.92;99817.97;4485170;31;20092;-71
2022/01/31 09:41:45;;;;;;;11.43;2.50;;;;;;;4.91;53.04;99815.44;4485493;31;20097;-71
2022/01/31 09:44:19;;;;;;;14.70;3.62;;;;;;;4.62;53.38;99796.19;4485311;31;20182;-71
2022/01/31 09:49:15;;;;;;;16.58;2.92;;;;;;;4.97;52.84;99791.06;4490586;31;20104;-71
2022/01/31 09:51:43;;;;;;;15.82;3.20;;;;;;;4.85;52.67;99788.44;4496345;31;20182;-72
2022/01/31 09:54:11;;;;;;;25.10;3.37;;;;;;;4.98;52.32;99779.72;4491940;31;20091;-71
2022/01/31 09:56:42;;;;;;;9.90;3.05;;;;;;;5.17;51.94;99781.50;4490686;31;20096;-71
2022/01/31 09:59:12;;;;;;;14.35;3.40;;;;;;;4.88;53.37;99759.72;4500516;31;20160;-71
2022/01/31 10:01:43;;;;;;;17.10;3.75;;;;;;;4.85;52.59;99749.28;4498689;31;20446;-73
2022/01/31 10:04:14;;;;;;;12.13;2.67;;;;;;;5.04;52.49;99746.66;4483710;31;20147;-71
2022/01/31 10:06:43;;;;;;;15.48;2.75;;;;;;;5.17;51.93;99742.31;4482857;31;20096;-71
2022/01/31 10:09:19;;;;;;;13.45;2.62;;;;;;;5.13;52.35;99743.22;4484826;31;20134;-71
2022/01/31 10:12:08;;;;;;;20.33;3.12;;;;;;;5.44;51.12;99744.06;4484727;31;20088;-71
2022/01/31 10:17:34;;;;;;;12.40;3.20;;;;;;;5.73;50.77;99733.53;4493077;31;20102;-71
2022/01/31 10:20:24;;;;;;;17.30;2.62;;;;;;;5.91;49.59;99727.37;4493280;31;20169;-72
2022/01/31 10:22:52;;;;;;;13.82;2.65;;;;;;;6.08;48.23;99726.44;4493219;31;20605;-72
2022/01/31 10:25:22;;;;;;;14.70;2.40;;;;;;;6.20;47.86;99722.06;4492046;31;20076;-71
2022/01/31 10:28:18;;;;;;;17.08;3.05;;;;;;;6.17;47.94;99714.22;4493354;31;20218;-71
2022/01/31 10:30:49;;;;;;;12.75;2.92;;;;;;;6.17;48.90;99701.13;4492739;31;20488;-71
2022/01/31 10:33:18;;;;;;;13.75;3.42;;;;;;;6.13;48.09;99693.31;4492100;31;20127;-71
2022/01/31 10:35:46;;;;;;;18.27;3.30;;;;;;;6.40;47.74;99689.69;4491915;31;20159;-71
2022/01/31 10:38:18;;;;;;;7.90;2.30;;;;;;;6.20;47.72;99688.03;4492920;31;20100;-71
2022/01/31 10:50:39;;;;;;;16.05;2.47;;;;;;;6.37;47.62;99681.84;4492458;31;20134;-71
2022/01/31 10:52:28;;;;;;;11.43;2.87;;;;;;;6.41;46.79;99655.66;4491459;31;20174;-71
2022/01/31 10:55:12;;;;;;;16.25;2.70;;;;;;;6.23;47.34;99654.03;4499838;31;20124;-71
2022/01/31 10:57:40;;;;;;;19.80;3.67;;;;;;;6.29;46.33;99654.84;4500181;31;20102;-71
2022/01/31 11:00:07;;;;;;;24.65;4.35;;;;;;;6.02;47.40;99641.06;4500253;31;20109;-71
2022/01/31 11:02:36;;;;;;;11.85;2.95;;;;;;;6.12;47.31;99623.59;4497458;31;20462;-71
2022/01/31 11:05:04;;;;;;;20.12;3.70;;;;;;;5.91;47.20;99630.63;4491657;31;20469;-71
2022/01/31 11:07:31;;;;;;;14.70;3.15;;;;;;;5.94;47.89;99621.94;4490972;31;20436;-71
2022/01/31 11:10:00;;;;;;;15.52;3.12;;;;;;;6.06;47.12;99631.47;4491226;31;20092;-71
2022/01/31 11:12:29;;;;;;;11.82;3.22;;;;;;;6.07;46.77;99623.59;4500296;31;20147;-71
2022/01/31 11:14:56;;;;;;;10.57;2.83;;;;;;;6.01;46.92;99626.25;4500037;31;20092;-71
2022/01/31 11:17:24;;;;;;;8.07;2.75;;;;;;;5.88;47.97;99624.56;4500166;31;20110;-71
2022/01/31 11:19:58;;;;;;;20.70;3.92;;;;;;;6.19;47.09;99618.31;4502234;31;20088;-71
2022/01/31 11:22:37;;;;;;;21.15;3.33;;;;;;;6.18;47.32;99600.88;4501914;31;20180;-71
2022/01/31 11:25:18;;;;;;;10.27;3.00;;;;;;;5.98;47.99;99590.53;4502880;31;20167;-71
2022/01/31 11:27:51;;;;;;;;;;;;;;;6.10;46.94;99570.41;4502661;31;20171;-71
2022/01/31 11:30:21;;;;;;;17.65;2.85;;;;;;;5.82;47.11;99554.00;4487511;31;19983;-71
2022/01/31 11:32:49;;;;;;;21.58;3.05;;;;;;;5.94;48.74;99539.13;4501099;31;20463;-71
2022/01/31 11:35:16;;;;;;;18.83;2.50;;;;;;;5.98;48.33;99532.16;4501635;31;20100;-71
2022/01/31 11:37:43;;;;;;;15.35;2.70;;;;;;;5.95;47.37;99521.69;4501619;31;20083;-72
2022/01/31 11:40:13;;;;;;;24.55;5.47;;;;;;;5.96;47.78;99518.19;4484601;31;20415;-71
2022/01/31 11:42:47;;;;;;;11.77;3.35;;;;;;;6.43;46.61;99523.06;4492961;31;20477;-71
2022/01/31 11:45:32;;;;;;;12.80;3.78;;;;;;;6.34;46.95;99523.13;4492859;31;20179;-71
2022/01/31 11:48:05;;;;;;;17.52;3.87;;;;;;;6.35;47.17;99524.00;4492392;31;20095;-71
2022/01/31 11:50:42;;;;;;;11.02;3.20;;;;;;;6.00;47.59;99517.28;4490375;31;20376;-71
2022/01/31 11:53:09;;;;;;;11.35;2.55;;;;;;;5.88;48.59;99497.31;4493872;31;20171;-71
2022/01/31 11:55:41;;;;;;;18.08;2.50;;;;;;;6.02;47.50;99489.41;4485733;31;20148;-71
2022/01/31 11:58:17;;;;;;;15.40;2.87;;;;;;;6.10;47.96;99455.34;4499845;31;20138;-72